sensor_id;sensor_type;location;lat;lon;timestamp;pressure;altitude;pressure_sealevel;temperature;humidity
48824;BME280;34640;53.590;10.054;2022-09-09T00:02:55;100382.88;;;14.80;100.00
48824;BME280;34640;53.590;10.054;2022-09-09T00:05:56;100384.72;;;14.83;100.00
48824;BME280;34640;53.590;10.054;2022-09-09T00:08:58;100374.28;;;14.84;100.00
48824;BME280;34640;53.590;10.054;2022-09-09T00:11:54;100382.31;;;14.89;100.00
48824;BME280;34640;53.590;10.054;2022-09-09T00:14:51;100376.22;;;14.90;100.00
48824;BME280;34640;53.590;10.054;2022-09-09T00:17:49;100378.84;;;14.90;100.00
48824;BME280;34640;53.590;10.054;2022-09-09T00:20:49;100384.09;;;14.90;100.00
48824;BME280;34640;53.590;10.054;2022-09-09T00:23:49;100384.16;;;14.91;100.00
48824;BME280;34640;53.590;10.054;2022-09-09T00:26:45;100385.97;;;14.94;100.00
48824;BME280;34640;53.590;10.054;2022-09-09T00:29:43;100385.97;;;14.94;100.00
48824;BME280;34640;53.590;10.054;2022-09-09T00:32:36;100392.06;;;14.93;100.00
48824;BME280;34640;53.590;10.054;2022-09-09T00:35:31;100385.94;;;14.92;100.00
48824;BME280;34640;53.590;10.054;2022-09-09T00:38:29;100383.31;;;14.92;100.00
48824;BME280;34640;53.590;10.054;2022-09-09T00:41:35;100379.63;;;14.87;100.00
48824;BME280;34640;53.590;10.054;2022-09-09T00:44:32;100374.22;;;14.83;100.00
48824;BME280;34640;53.590;10.054;2022-09-09T00:47:38;100383.03;;;14.85;100.00
48824;BME280;34640;53.590;10.054;2022-09-09T00:50:42;100380.47;;;14.86;100.00
48824;BME280;34640;53.590;10.054;2022-09-09T00:53:41;100380.31;;;14.82;100.00
48824;BME280;34640;53.590;10.054;2022-09-09T00:56:37;100383.94;;;14.85;100.00
48824;BME280;34640;53.590;10.054;2022-09-09T00:59:43;100375.03;;;14.80;100.00
48824;BME280;34640;53.590;10.054;2022-09-09T01:02:43;100373.34;;;14.82;100.00
48824;BME280;34640;53.590;10.054;2022-09-09T01:05:44;100384.72;;;14.83;100.00
48824;BME280;34640;53.590;10.054;2022-09-09T01:08:48;100374.19;;;14.81;100.00
48824;BME280;34640;53.590;10.054;2022-09-09T01:11:49;100379.47;;;14.83;100.00
48824;BME280;34640;53.590;10.054;2022-09-09T01:14:48;100379.44;;;14.81;100.00
48824;BME280;34640;53.590;10.054;2022-09-09T01:17:50;100379.38;;;14.80;100.00
48824;BME280;34640;53.590;10.054;2022-09-09T01:20:49;100371.16;;;14.71;100.00
48824;BME280;34640;53.590;10.054;2022-09-09T01:23:59;100379.56;;;14.62;100.00
48824;BME280;34640;53.590;10.054;2022-09-09T01:26:58;100378.56;;;14.58;100.00
48824;BME280;34640;53.590;10.054;2022-09-09T01:29:52;100380.25;;;14.56;100.00
48824;BME280;34640;53.590;10.054;2022-09-09T01:32:45;100375.84;;;14.55;100.00
48824;BME280;34640;53.590;10.054;2022-09-09T01:35:43;100379.41;;;14.57;100.00
48824;BME280;34640;53.590;10.054;2022-09-09T01:38:37;100378.41;;;14.54;100.00
48824;BME280;34640;53.590;10.054;2022-09-09T01:41:29;100374.91;;;14.53;100.00
48824;BME280;34640;53.590;10.054;2022-09-09T01:44:22;100371.25;;;14.50;100.00
48824;BME280;34640;53.590;10.054;2022-09-09T01:47:15;100370.25;;;14.46;100.00
48824;BME280;34640;53.590;10.054;2022-09-09T01:50:10;100372.66;;;14.42;100.00
48824;BME280;34640;53.590;10.054;2022-09-09T01:53:04;100370.88;;;14.41;100.00
48824;BME280;34640;53.590;10.054;2022-09-09T01:56:05;100369.22;;;14.43;100.00
48824;BME280;34640;53.590;10.054;2022-09-09T01:59:11;100361.19;;;14.38;100.00
48824;BME280;34640;53.590;10.054;2022-09-09T02:02:13;100364.75;;;14.40;100.00
48824;BME280;34640;53.590;10.054;2022-09-09T02:05:17;100362.13;;;14.40;100.00
48824;BME280;34640;53.590;10.054;2022-09-09T02:08:17;100360.28;;;14.37;100.00
48824;BME280;34640;53.590;10.054;2022-09-09T02:11:14;100355.88;;;14.36;100.00
48824;BME280;34640;53.590;10.054;2022-09-09T02:14:09;100366.19;;;14.32;100.00
48824;BME280;34640;53.590;10.054;2022-09-09T02:17:08;100368.88;;;14.33;100.00
48824;BME280;34640;53.590;10.054;2022-09-09T02:20:08;100368.66;;;14.29;100.00
48824;BME280;34640;53.590;10.054;2022-09-09T02:23:01;100366.78;;;14.25;100.00
48824;BME280;34640;53.590;10.054;2022-09-09T02:25:55;100368.44;;;14.23;100.00
48824;BME280;34640;53.590;10.054;2022-09-09T02:28:50;100373.63;;;14.21;100.00
48824;BME280;34640;53.590;10.054;2022-09-09T02:31:44;100364.09;;;14.23;100.00
48824;BME280;34640;53.590;10.054;2022-09-09T02:34:40;100362.44;;;14.25;100.00
48824;BME280;34640;53.590;10.054;2022-09-09T02:37:37;100364.22;;;14.26;100.00
48824;BME280;34640;53.590;10.054;2022-09-09T02:40:29;100365.94;;;14.26;100.00
48824;BME280;34640;53.590;10.054;2022-09-09T02:43:21;100365.94;;;14.26;100.00
48824;BME280;34640;53.590;10.054;2022-09-09T02:46:24;100356.28;;;14.25;100.00
48824;BME280;34640;53.590;10.054;2022-09-09T02:49:24;100365.94;;;14.26;100.00
48824;BME280;34640;53.590;10.054;2022-09-09T02:52:21;100362.44;;;14.25;100.00
48824;BME280;34640;53.590;10.054;2022-09-09T02:55:23;100364.88;;;14.21;100.00
48824;BME280;34640;53.590;10.054;2022-09-09T02:58:17;100361.38;;;14.20;100.00
48824;BME280;34640;53.590;10.054;2022-09-09T03:01:10;100364.09;;;14.23;100.00
48824;BME280;34640;53.590;10.054;2022-09-09T03:04:02;100367.59;;;14.24;100.00
48824;BME280;34640;53.590;10.054;2022-09-09T03:06:55;100365.75;;;14.21;100.00
48824;BME280;34640;53.590;10.054;2022-09-09T03:09:52;100357.84;;;14.20;100.00
48824;BME280;34640;53.590;10.054;2022-09-09T03:12:46;100357.75;;;14.17;100.00
48824;BME280;34640;53.590;10.054;2022-09-09T03:15:38;100370.72;;;14.14;100.00
48824;BME280;34640;53.590;10.054;2022-09-09T03:18:30;100367.09;;;14.10;100.00
48824;BME280;34640;53.590;10.054;2022-09-09T03:21:22;100375.13;;;14.15;100.00
48824;BME280;34640;53.590;10.054;2022-09-09T03:24:14;100365.44;;;14.12;100.00
48824;BME280;34640;53.590;10.054;2022-09-09T03:27:06;100368.88;;;14.11;100.00
48824;BME280;34640;53.590;10.054;2022-09-09T03:29:59;100362.75;;;14.11;100.00
48824;BME280;34640;53.590;10.054;2022-09-09T03:32:54;100359.28;;;14.12;100.00
48824;BME280;34640;53.590;10.054;2022-09-09T03:35:47;100358.13;;;14.05;100.00
48824;BME280;34640;53.590;10.054;2022-09-09T03:38:38;100357.25;;;14.04;100.00
48824;BME280;34640;53.590;10.054;2022-09-09T03:41:30;100357.25;;;14.04;100.00
48824;BME280;34640;53.590;10.054;2022-09-09T03:44:22;100358.75;;;13.98;100.00
48824;BME280;34640;53.590;10.054;2022-09-09T03:47:15;100363.16;;;13.99;100.00
48824;BME280;34640;53.590;10.054;2022-09-09T03:50:08;100371.72;;;13.95;100.00
48824;BME280;34640;53.590;10.054;2022-09-09T03:53:01;100376.25;;;13.99;100.00
48824;BME280;34640;53.590;10.054;2022-09-09T03:55:54;100372.44;;;13.91;100.00
48824;BME280;34640;53.590;10.054;2022-09-09T03:58:46;100377.78;;;13.94;100.00
48824;BME280;34640;53.590;10.054;2022-09-09T04:01:37;100376.91;;;13.93;100.00
48824;BME280;34640;53.590;10.054;2022-09-09T04:04:32;100383.09;;;13.95;100.00
48824;BME280;34640;53.590;10.054;2022-09-09T04:07:23;100379.69;;;13.98;100.00
48824;BME280;34640;53.590;10.054;2022-09-09T04:10:15;100384.94;;;13.98;100.00
48824;BME280;34640;53.590;10.054;2022-09-09T04:13:07;100382.19;;;13.95;100.00
48824;BME280;34640;53.590;10.054;2022-09-09T04:16:01;100384.69;;;13.92;100.00
48824;BME280;34640;53.590;10.054;2022-09-09T04:18:54;100378.28;;;13.85;100.00
48824;BME280;34640;53.590;10.054;2022-09-09T04:21:47;100382.69;;;13.86;100.00
48824;BME280;34640;53.590;10.054;2022-09-09T04:24:41;100380.91;;;13.85;100.00
48824;BME280;34640;53.590;10.054;2022-09-09T04:27:38;100393.09;;;13.85;100.00
48824;BME280;34640;53.590;10.054;2022-09-09T04:30:30;100390.50;;;13.85;100.00
48824;BME280;34640;53.590;10.054;2022-09-09T04:33:23;100393.75;;;13.79;100.00
48824;BME280;34640;53.590;10.054;2022-09-09T04:36:17;100394.59;;;13.78;100.00
48824;BME280;34640;53.590;10.054;2022-09-09T04:39:11;100401.38;;;13.73;100.00
48824;BME280;34640;53.590;10.054;2022-09-09T04:42:03;100389.06;;;13.70;100.00
48824;BME280;34640;53.590;10.054;2022-09-09T04:44:55;100399.69;;;13.75;100.00
48824;BME280;34640;53.590;10.054;2022-09-09T04:47:47;100396.00;;;13.70;100.00
48824;BME280;34640;53.590;10.054;2022-09-09T04:50:39;100405.81;;;13.75;100.00
48824;BME280;34640;53.590;10.054;2022-09-09T04:53:32;100405.00;;;13.76;100.00
48824;BME280;34640;53.590;10.054;2022-09-09T04:56:26;100404.09;;;13.76;100.00
48824;BME280;34640;53.590;10.054;2022-09-09T04:59:18;100405.81;;;13.75;100.00
48824;BME280;34640;53.590;10.054;2022-09-09T05:02:10;100397.91;;;13.74;100.00
48824;BME280;34640;53.590;10.054;2022-09-09T05:05:02;100406.00;;;13.80;100.00
48824;BME280;34640;53.590;10.054;2022-09-09T05:07:54;100408.69;;;13.82;100.00
48824;BME280;34640;53.590;10.054;2022-09-09T05:10:51;100409.53;;;13.81;100.00
48824;BME280;34640;53.590;10.054;2022-09-09T05:13:46;100406.97;;;13.82;100.00
48824;BME280;34640;53.590;10.054;2022-09-09T05:16:37;100409.59;;;13.82;100.00
48824;BME280;34640;53.590;10.054;2022-09-09T05:19:29;100413.16;;;13.84;100.00
48824;BME280;34640;53.590;10.054;2022-09-09T05:22:21;100411.25;;;13.80;100.00
48824;BME280;34640;53.590;10.054;2022-09-09T05:25:13;100417.72;;;13.88;100.00
48824;BME280;34640;53.590;10.054;2022-09-09T05:28:04;100413.16;;;13.84;100.00
48824;BME280;34640;53.590;10.054;2022-09-09T05:31:00;100408.13;;;13.89;100.00
48824;BME280;34640;53.590;10.054;2022-09-09T05:33:53;100415.28;;;13.93;100.00
48824;BME280;34640;53.590;10.054;2022-09-09T05:36:45;100419.66;;;13.94;100.00
48824;BME280;34640;53.590;10.054;2022-09-09T05:39:37;100414.31;;;13.91;100.00
48824;BME280;34640;53.590;10.054;2022-09-09T05:42:30;100416.41;;;13.99;100.00
48824;BME280;34640;53.590;10.054;2022-09-09T05:45:23;100422.72;;;14.04;100.00
48824;BME280;34640;53.590;10.054;2022-09-09T05:48:16;100431.44;;;14.05;100.00
48824;BME280;34640;53.590;10.054;2022-09-09T05:51:09;100442.56;;;14.20;100.00
48824;BME280;34640;53.590;10.054;2022-09-09T05:54:03;100436.59;;;14.24;100.00
48824;BME280;34640;53.590;10.054;2022-09-09T05:56:54;100437.66;;;14.29;100.00
48824;BME280;34640;53.590;10.054;2022-09-09T05:59:46;100437.81;;;14.32;100.00
48824;BME280;34640;53.590;10.054;2022-09-09T06:02:38;100442.34;;;14.36;100.00
48824;BME280;34640;53.590;10.054;2022-09-09T06:05:33;100437.22;;;14.40;100.00
48824;BME280;34640;53.590;10.054;2022-09-09T06:08:25;100444.50;;;14.47;100.00
48824;BME280;34640;53.590;10.054;2022-09-09T06:11:19;100441.09;;;14.49;100.00
48824;BME280;34640;53.590;10.054;2022-09-09T06:14:11;100452.84;;;14.59;100.00
48824;BME280;34640;53.590;10.054;2022-09-09T06:17:03;100453.97;;;14.65;100.00
48824;BME280;34640;53.590;10.054;2022-09-09T06:19:55;100461.38;;;14.76;100.00
48824;BME280;34640;53.590;10.054;2022-09-09T06:22:49;100458.78;;;14.77;100.00
48824;BME280;34640;53.590;10.054;2022-09-09T06:25:47;100466.66;;;14.77;100.00
48824;BME280;34640;53.590;10.054;2022-09-09T06:28:39;100471.69;;;14.73;100.00
48824;BME280;34640;53.590;10.054;2022-09-09T06:31:34;100465.56;;;14.72;100.00
48824;BME280;34640;53.590;10.054;2022-09-09T06:34:27;100462.78;;;14.67;100.00
48824;BME280;34640;53.590;10.054;2022-09-09T06:37:19;100459.16;;;14.64;100.00
48824;BME280;34640;53.590;10.054;2022-09-09T06:40:12;100463.38;;;14.60;100.00
48824;BME280;34640;53.590;10.054;2022-09-09T06:43:04;100464.28;;;14.61;100.00
48824;BME280;34640;53.590;10.054;2022-09-09T06:45:57;100462.31;;;14.55;100.00
48824;BME280;34640;53.590;10.054;2022-09-09T06:48:49;100455.28;;;14.54;100.00
48824;BME280;34640;53.590;10.054;2022-09-09T06:51:41;100467.50;;;14.54;100.00
48824;BME280;34640;53.590;10.054;2022-09-09T06:54:33;100463.22;;;14.56;100.00
48824;BME280;34640;53.590;10.054;2022-09-09T06:57:29;100454.81;;;14.64;100.00
48824;BME280;34640;53.590;10.054;2022-09-09T07:00:27;100460.16;;;14.67;100.00
48824;BME280;34640;53.590;10.054;2022-09-09T07:03:20;100459.50;;;14.73;100.00
48824;BME280;34640;53.590;10.054;2022-09-09T07:06:14;100461.06;;;14.92;100.00
48824;BME280;34640;53.590;10.054;2022-09-09T07:09:09;100468.75;;;15.10;100.00
48824;BME280;34640;53.590;10.054;2022-09-09T07:12:01;100458.88;;;15.26;100.00
48824;BME280;34640;53.590;10.054;2022-09-09T07:14:55;100469.91;;;15.42;100.00
48824;BME280;34640;53.590;10.054;2022-09-09T07:17:46;100472.00;;;15.52;100.00
48824;BME280;34640;53.590;10.054;2022-09-09T07:20:38;100473.84;;;15.54;100.00
48824;BME280;34640;53.590;10.054;2022-09-09T07:23:30;100475.63;;;15.55;100.00
48824;BME280;34640;53.590;10.054;2022-09-09T07:26:27;100478.00;;;15.48;100.00
48824;BME280;34640;53.590;10.054;2022-09-09T07:29:19;100478.84;;;15.47;100.00
48824;BME280;34640;53.590;10.054;2022-09-09T07:32:12;100481.47;;;15.47;100.00
48824;BME280;34640;53.590;10.054;2022-09-09T07:35:05;100478.19;;;15.54;100.00
48824;BME280;34640;53.590;10.054;2022-09-09T07:37:57;100473.00;;;15.55;100.00
48824;BME280;34640;53.590;10.054;2022-09-09T07:40:48;100475.41;;;15.73;100.00
48824;BME280;34640;53.590;10.054;2022-09-09T07:43:41;100473.59;;;15.98;100.00
48824;BME280;34640;53.590;10.054;2022-09-09T07:46:34;100486.59;;;16.74;100.00
48824;BME280;34640;53.590;10.054;2022-09-09T07:49:27;100495.53;;;17.09;100.00
48824;BME280;34640;53.590;10.054;2022-09-09T07:52:22;100499.50;;;17.88;100.00
48824;BME280;34640;53.590;10.054;2022-09-09T07:55:14;100504.78;;;17.88;100.00
48824;BME280;34640;53.590;10.054;2022-09-09T07:58:06;100501.69;;;17.39;100.00
48824;BME280;34640;53.590;10.054;2022-09-09T08:00:58;100496.78;;;16.92;100.00
48824;BME280;34640;53.590;10.054;2022-09-09T08:03:53;100498.56;;;16.93;100.00
48824;BME280;34640;53.590;10.054;2022-09-09T08:06:49;100504.69;;;16.65;100.00
48824;BME280;34640;53.590;10.054;2022-09-09T08:09:40;100504.34;;;16.54;100.00
48824;BME280;34640;53.590;10.054;2022-09-09T08:12:32;100510.41;;;16.52;100.00
48824;BME280;34640;53.590;10.054;2022-09-09T08:15:25;100507.75;;;16.50;100.00
48824;BME280;34640;53.590;10.054;2022-09-09T08:18:17;100513.03;;;16.52;100.00
48824;BME280;34640;53.590;10.054;2022-09-09T08:21:11;100514.25;;;16.63;100.00
48824;BME280;34640;53.590;10.054;2022-09-09T08:24:06;100519.69;;;16.67;100.00
48824;BME280;34640;53.590;10.054;2022-09-09T08:26:57;100519.81;;;16.70;100.00
48824;BME280;34640;53.590;10.054;2022-09-09T08:29:49;100520.84;;;16.75;100.00
48824;BME280;34640;53.590;10.054;2022-09-09T08:32:41;100525.88;;;16.96;100.00
48824;BME280;34640;53.590;10.054;2022-09-09T08:35:36;100522.03;;;17.15;100.00
48824;BME280;34640;53.590;10.054;2022-09-09T08:38:27;100515.97;;;17.18;100.00
48824;BME280;34640;53.590;10.054;2022-09-09T08:41:41;100524.47;;;17.09;100.00
48824;BME280;34640;53.590;10.054;2022-09-09T08:44:45;100529.13;;;17.18;100.00
48824;BME280;34640;53.590;10.054;2022-09-09T08:47:47;100524.66;;;17.15;100.00
48824;BME280;34640;53.590;10.054;2022-09-09T08:50:42;100526.66;;;16.94;100.00
48824;BME280;34640;53.590;10.054;2022-09-09T08:53:38;100531.47;;;17.08;100.00
48824;BME280;34640;53.590;10.054;2022-09-09T08:56:32;100530.53;;;17.06;100.00
48824;BME280;34640;53.590;10.054;2022-09-09T08:59:26;100527.25;;;17.14;100.00
48824;BME280;34640;53.590;10.054;2022-09-09T09:02:22;100526.88;;;17.01;100.00
48824;BME280;34640;53.590;10.054;2022-09-09T09:05:18;100528.28;;;16.90;100.00
48824;BME280;34640;53.590;10.054;2022-09-09T09:08:19;100530.81;;;17.16;100.00
48824;BME280;34640;53.590;10.054;2022-09-09T09:11:12;100534.41;;;17.49;100.00
48824;BME280;34640;53.590;10.054;2022-09-09T09:14:09;100534.69;;;17.58;100.00
48824;BME280;34640;53.590;10.054;2022-09-09T09:17:08;100538.56;;;17.71;100.00
48824;BME280;34640;53.590;10.054;2022-09-09T09:20:03;100539.28;;;17.98;100.00
48824;BME280;34640;53.590;10.054;2022-09-09T09:23:00;100539.75;;;18.17;100.00
48824;BME280;34640;53.590;10.054;2022-09-09T09:25:59;100531.16;;;18.22;100.00
48824;BME280;34640;53.590;10.054;2022-09-09T09:28:52;100535.72;;;18.29;100.00
48824;BME280;34640;53.590;10.054;2022-09-09T09:31:50;100539.00;;;18.21;100.00
48824;BME280;34640;53.590;10.054;2022-09-09T09:34:49;100539.75;;;18.17;100.00
48824;BME280;34640;53.590;10.054;2022-09-09T09:37:43;100540.56;;;18.13;100.00
48824;BME280;34640;53.590;10.054;2022-09-09T09:41:14;100541.59;;;18.19;100.00
48824;BME280;34640;53.590;10.054;2022-09-09T09:44:27;100539.41;;;18.38;100.00
48824;BME280;34640;53.590;10.054;2022-09-09T09:47:37;100537.06;;;18.48;100.00
48824;BME280;34640;53.590;10.054;2022-09-09T09:50:53;100536.84;;;18.41;100.00
48824;BME280;34640;53.590;10.054;2022-09-09T09:54:09;100535.19;;;18.44;100.00
48824;BME280;34640;53.590;10.054;2022-09-09T09:57:26;100537.09;;;18.50;100.00
48824;BME280;34640;53.590;10.054;2022-09-09T10:00:47;100534.66;;;18.59;100.00
48824;BME280;34640;53.590;10.054;2022-09-09T10:04:00;100544.78;;;18.77;100.00
48824;BME280;34640;53.590;10.054;2022-09-09T10:07:18;100546.66;;;18.82;100.00
48824;BME280;34640;53.590;10.054;2022-09-09T10:10:36;100544.09;;;18.85;100.00
48824;BME280;34640;53.590;10.054;2022-09-09T10:14:01;100545.38;;;19.03;100.00
48824;BME280;34640;53.590;10.054;2022-09-09T10:17:06;100538.09;;;18.91;100.00
48824;BME280;34640;53.590;10.054;2022-09-09T10:20:15;100542.56;;;18.95;100.00
48824;BME280;34640;53.590;10.054;2022-09-09T10:23:21;100543.78;;;19.09;100.00
48824;BME280;34640;53.590;10.054;2022-09-09T10:26:31;100531.41;;;19.08;100.00
48824;BME280;34640;53.590;10.054;2022-09-09T10:29:39;100530.91;;;19.26;100.00
48824;BME280;34640;53.590;10.054;2022-09-09T10:33:01;100530.31;;;19.39;100.00
48824;BME280;34640;53.590;10.054;2022-09-09T10:36:02;100530.38;;;19.42;100.00
48824;BME280;34640;53.590;10.054;2022-09-09T10:39:32;100541.06;;;19.50;100.00
48824;BME280;34640;53.590;10.054;2022-09-09T10:42:46;100535.88;;;19.53;100.00
48824;BME280;34640;53.590;10.054;2022-09-09T10:46:01;100532.19;;;19.90;98.76
48824;BME280;34640;53.590;10.054;2022-09-09T10:49:20;100530.41;;;19.88;96.16
48824;BME280;34640;53.590;10.054;2022-09-09T10:52:35;100531.28;;;19.88;98.43
48824;BME280;34640;53.590;10.054;2022-09-09T10:55:53;100538.31;;;19.86;97.70
48824;BME280;34640;53.590;10.054;2022-09-09T10:59:04;100527.94;;;19.97;95.76
48824;BME280;34640;53.590;10.054;2022-09-09T11:02:16;100529.75;;;19.99;96.71
48824;BME280;34640;53.590;10.054;2022-09-09T11:05:31;100527.88;;;19.95;94.34
48824;BME280;34640;53.590;10.054;2022-09-09T11:08:46;100526.97;;;19.93;94.30
48824;BME280;34640;53.590;10.054;2022-09-09T11:12:11;100520.59;;;19.80;96.94
48824;BME280;34640;53.590;10.054;2022-09-09T11:15:28;100524.16;;;19.84;96.84
48824;BME280;34640;53.590;10.054;2022-09-09T11:18:42;100518.06;;;19.88;96.29
48824;BME280;34640;53.590;10.054;2022-09-09T11:21:55;100525.13;;;19.89;93.57
48824;BME280;34640;53.590;10.054;2022-09-09T11:25:10;100516.66;;;20.08;94.04
48824;BME280;34640;53.590;10.054;2022-09-09T11:28:35;100519.69;;;20.30;94.32
48824;BME280;34640;53.590;10.054;2022-09-09T11:32:00;100529.72;;;20.49;93.61
48824;BME280;34640;53.590;10.054;2022-09-09T11:35:27;100535.03;;;20.51;94.14
48824;BME280;34640;53.590;10.054;2022-09-09T11:38:44;100533.13;;;20.40;94.11
48824;BME280;34640;53.590;10.054;2022-09-09T11:42:05;100534.00;;;20.41;95.12
48824;BME280;34640;53.590;10.054;2022-09-09T11:45:23;100530.34;;;20.36;95.29
48824;BME280;34640;53.590;10.054;2022-09-09T11:48:38;100534.59;;;20.25;94.58
48824;BME280;34640;53.590;10.054;2022-09-09T11:51:52;100536.34;;;20.24;94.97
48824;BME280;34640;53.590;10.054;2022-09-09T11:55:09;100532.59;;;20.13;95.03
48824;BME280;34640;53.590;10.054;2022-09-09T11:58:21;100536.28;;;20.20;95.17
48824;BME280;34640;53.590;10.054;2022-09-09T12:01:37;100539.59;;;20.09;95.95
48824;BME280;34640;53.590;10.054;2022-09-09T12:04:55;100546.81;;;20.18;95.93
48824;BME280;34640;53.590;10.054;2022-09-09T12:08:10;100527.59;;;20.28;95.92
48824;BME280;34640;53.590;10.054;2022-09-09T12:11:25;100526.41;;;20.11;96.85
48824;BME280;34640;53.590;10.054;2022-09-09T12:14:42;100531.75;;;20.15;97.19
48824;BME280;34640;53.590;10.054;2022-09-09T12:17:55;100528.88;;;20.00;97.47
48824;BME280;34640;53.590;10.054;2022-09-09T12:21:17;100527.06;;;19.98;99.01
48824;BME280;34640;53.590;10.054;2022-09-09T12:24:37;100528.66;;;19.90;98.69
48824;BME280;34640;53.590;10.054;2022-09-09T12:28:01;100524.47;;;20.01;98.80
48824;BME280;34640;53.590;10.054;2022-09-09T12:31:15;100537.84;;;20.10;98.21
48824;BME280;34640;53.590;10.054;2022-09-09T12:34:38;100533.94;;;19.88;100.00
48824;BME280;34640;53.590;10.054;2022-09-09T12:37:51;100532.50;;;19.18;100.00
48824;BME280;34640;53.590;10.054;2022-09-09T12:41:03;100531.47;;;18.71;100.00
48824;BME280;34640;53.590;10.054;2022-09-09T12:44:13;100525.03;;;18.61;100.00
48824;BME280;34640;53.590;10.054;2022-09-09T12:47:33;100517.88;;;18.55;100.00
48824;BME280;34640;53.590;10.054;2022-09-09T12:50:52;100509.97;;;18.55;100.00
48824;BME280;34640;53.590;10.054;2022-09-09T12:54:05;100512.13;;;18.72;100.00
48824;BME280;34640;53.590;10.054;2022-09-09T12:57:15;100513.91;;;18.73;100.00
48824;BME280;34640;53.590;10.054;2022-09-09T13:00:26;100513.03;;;18.72;100.00
48824;BME280;34640;53.590;10.054;2022-09-09T13:03:42;100517.97;;;18.60;100.00
48824;BME280;34640;53.590;10.054;2022-09-09T13:07:06;100522.31;;;18.58;100.00
48824;BME280;34640;53.590;10.054;2022-09-09T13:10:24;100530.38;;;18.62;100.00
48824;BME280;34640;53.590;10.054;2022-09-09T13:13:52;100521.50;;;18.60;100.00
48824;BME280;34640;53.590;10.054;2022-09-09T13:17:04;100526.69;;;18.56;100.00
48824;BME280;34640;53.590;10.054;2022-09-09T13:20:17;100522.22;;;18.53;100.00
48824;BME280;34640;53.590;10.054;2022-09-09T13:23:31;100525.72;;;18.52;100.00
48824;BME280;34640;53.590;10.054;2022-09-09T13:26:54;100523.00;;;18.49;100.00
48824;BME280;34640;53.590;10.054;2022-09-09T13:30:20;100524.81;;;18.52;100.00
48824;BME280;34640;53.590;10.054;2022-09-09T13:33:34;100536.09;;;18.45;100.00
48824;BME280;34640;53.590;10.054;2022-09-09T13:36:48;100544.16;;;18.51;100.00
48824;BME280;34640;53.590;10.054;2022-09-09T13:40:00;100560.00;;;18.52;100.00
48824;BME280;34640;53.590;10.054;2022-09-09T13:43:16;100568.50;;;18.41;100.00
48824;BME280;34640;53.590;10.054;2022-09-09T13:46:34;100579.59;;;17.94;100.00
48824;BME280;34640;53.590;10.054;2022-09-09T13:49:44;100590.34;;;17.70;100.00
48824;BME280;34640;53.590;10.054;2022-09-09T13:52:57;100580.66;;;17.39;100.00
48824;BME280;34640;53.590;10.054;2022-09-09T13:56:09;100578.16;;;17.14;100.00
48824;BME280;34640;53.590;10.054;2022-09-09T13:59:19;100572.47;;;17.00;100.00
48824;BME280;34640;53.590;10.054;2022-09-09T14:02:30;100569.44;;;16.88;100.00
48824;BME280;34640;53.590;10.054;2022-09-09T14:05:41;100559.63;;;16.83;100.00
48824;BME280;34640;53.590;10.054;2022-09-09T14:08:52;100558.69;;;16.80;100.00
48824;BME280;34640;53.590;10.054;2022-09-09T14:12:05;100545.31;;;16.73;100.00
48824;BME280;34640;53.590;10.054;2022-09-09T14:15:15;100545.31;;;16.73;100.00
48824;BME280;34640;53.590;10.054;2022-09-09T14:18:26;100537.41;;;16.73;100.00
48824;BME280;34640;53.590;10.054;2022-09-09T14:21:36;100547.09;;;16.74;100.00
48824;BME280;34640;53.590;10.054;2022-09-09T14:24:46;100545.34;;;16.74;100.00
48824;BME280;34640;53.590;10.054;2022-09-09T14:27:58;100547.28;;;16.80;100.00
48824;BME280;34640;53.590;10.054;2022-09-09T14:31:08;100549.00;;;16.79;100.00
48824;BME280;34640;53.590;10.054;2022-09-09T14:34:19;100545.59;;;16.82;100.00
48824;BME280;34640;53.590;10.054;2022-09-09T14:37:29;100543.09;;;16.87;100.00
48824;BME280;34640;53.590;10.054;2022-09-09T14:40:39;100545.84;;;16.91;100.00
48824;BME280;34640;53.590;10.054;2022-09-09T14:43:51;100541.84;;;16.74;100.00
48824;BME280;34640;53.590;10.054;2022-09-09T14:47:02;100538.44;;;16.51;100.00
48824;BME280;34640;53.590;10.054;2022-09-09T14:50:13;100532.78;;;16.39;100.00
48824;BME280;34640;53.590;10.054;2022-09-09T14:53:23;100540.19;;;16.25;100.00
48824;BME280;34640;53.590;10.054;2022-09-09T14:56:34;100541.78;;;16.20;100.00
48824;BME280;34640;53.590;10.054;2022-09-09T14:59:46;100547.09;;;16.22;100.00
48824;BME280;34640;53.590;10.054;2022-09-09T15:02:59;100548.25;;;16.30;100.00
48824;BME280;34640;53.590;10.054;2022-09-09T15:06:11;100539.47;;;16.29;100.00
48824;BME280;34640;53.590;10.054;2022-09-09T15:09:21;100546.63;;;16.33;100.00
48824;BME280;34640;53.590;10.054;2022-09-09T15:12:32;100538.97;;;16.41;100.00
48824;BME280;34640;53.590;10.054;2022-09-09T15:15:46;100547.88;;;16.46;100.00
48824;BME280;34640;53.590;10.054;2022-09-09T15:19:00;100544.41;;;16.47;100.00
48824;BME280;34640;53.590;10.054;2022-09-09T15:22:11;100539.97;;;16.44;100.00
48824;BME280;34640;53.590;10.054;2022-09-09T15:25:22;100539.88;;;16.41;100.00
48824;BME280;34640;53.590;10.054;2022-09-09T15:28:33;100553.66;;;16.34;100.00